createdAt,value
2018-07-14T00:00:57.397Z,0.00
2018-07-14T00:01:57.338Z,0.00
2018-07-14T00:02:57.277Z,0.00
2018-07-14T00:03:57.213Z,0.00
2018-07-14T00:04:57.156Z,0.00
2018-07-14T00:05:57.097Z,0.00
2018-07-14T00:06:57.037Z,0.00
2018-07-14T00:07:56.981Z,0.00
2018-07-14T00:08:56.917Z,0.00
2018-07-14T00:09:56.909Z,0.00
2018-07-14T00:10:56.795Z,0.00
2018-07-14T00:11:56.737Z,0.00
2018-07-14T00:12:56.676Z,0.00
2018-07-14T00:13:56.622Z,0.00
2018-07-14T00:14:56.554Z,0.00
2018-07-14T00:15:56.494Z,0.00
2018-07-14T00:16:56.433Z,0.00
2018-07-14T00:17:56.374Z,0.00
2018-07-14T00:18:56.313Z,0.00
2018-07-14T00:19:56.253Z,0.00
2018-07-14T00:20:56.192Z,0.00
2018-07-14T00:21:56.132Z,0.00
2018-07-14T00:22:56.071Z,0.00
2018-07-14T00:23:56.012Z,0.00
2018-07-14T00:24:55.952Z,0.00
2018-07-14T00:25:55.889Z,0.00
2018-07-14T00:26:55.836Z,0.00
2018-07-14T00:27:55.771Z,0.00
2018-07-14T00:28:55.709Z,0.00
2018-07-14T00:29:55.649Z,0.00
2018-07-14T00:30:55.590Z,0.00
2018-07-14T00:31:55.529Z,0.00
2018-07-14T00:32:55.468Z,0.00
2018-07-14T00:33:55.410Z,0.00
2018-07-14T00:34:55.350Z,0.00
2018-07-14T00:35:55.286Z,0.00
2018-07-14T00:36:55.227Z,0.00
2018-07-14T00:37:55.165Z,0.00
2018-07-14T00:38:55.103Z,0.00
2018-07-14T00:39:55.045Z,0.00
2018-07-14T00:40:54.985Z,0.00
2018-07-14T00:41:54.924Z,0.00
2018-07-14T00:42:54.865Z,0.00
2018-07-14T00:43:54.804Z,0.00
2018-07-14T00:44:54.747Z,0.00
2018-07-14T00:45:54.681Z,0.00
2018-07-14T00:46:54.623Z,0.00
2018-07-14T00:47:54.563Z,0.00
2018-07-14T00:48:54.503Z,0.00
2018-07-14T00:49:54.437Z,0.00
2018-07-14T00:50:54.381Z,0.00
2018-07-14T00:51:54.319Z,0.00
2018-07-14T00:52:54.261Z,0.00
2018-07-14T00:53:54.198Z,0.00
2018-07-14T00:54:54.139Z,0.00
2018-07-14T00:55:54.078Z,0.00
2018-07-14T00:56:54.021Z,0.00
2018-07-14T00:57:53.956Z,0.00
2018-07-14T00:58:53.898Z,0.00
2018-07-14T00:59:53.836Z,0.00
2018-07-14T01:00:53.777Z,0.00
2018-07-14T01:01:53.718Z,0.00
2018-07-14T01:02:53.657Z,0.00
2018-07-14T01:03:53.596Z,0.00
2018-07-14T01:04:53.534Z,0.00
2018-07-14T01:05:53.474Z,0.00
2018-07-14T01:06:53.411Z,0.00
2018-07-14T01:07:53.356Z,0.00
2018-07-14T01:08:53.291Z,0.00
2018-07-14T01:09:53.232Z,0.00
2018-07-14T01:10:53.170Z,0.00
2018-07-14T01:11:53.114Z,0.00
2018-07-14T01:12:53.058Z,0.00
2018-07-14T01:13:52.990Z,0.00
2018-07-14T01:14:52.931Z,0.00
2018-07-14T01:15:52.871Z,0.00
2018-07-14T01:16:52.810Z,0.00
2018-07-14T01:17:52.842Z,0.00
2018-07-14T01:18:52.691Z,0.00
2018-07-14T01:19:52.629Z,0.00
2018-07-14T01:20:52.567Z,0.00
2018-07-14T01:21:52.506Z,0.00
2018-07-14T01:22:52.487Z,0.00
2018-07-14T01:23:52.388Z,0.00
2018-07-14T01:24:52.324Z,0.00
2018-07-14T01:25:52.264Z,0.00
2018-07-14T01:26:52.208Z,0.00
2018-07-14T01:27:52.144Z,0.00
2018-07-14T01:28:52.085Z,0.00
2018-07-14T01:29:52.019Z,0.00
2018-07-14T01:30:51.957Z,0.00
2018-07-14T01:31:51.906Z,0.00
2018-07-14T01:32:51.840Z,0.00
2018-07-14T01:33:51.785Z,0.00
2018-07-14T01:34:51.721Z,0.00
2018-07-14T01:35:51.659Z,0.00
2018-07-14T01:36:51.642Z,0.00
2018-07-14T01:37:51.539Z,0.00
2018-07-14T01:38:51.479Z,0.00
2018-07-14T01:39:51.417Z,0.00
2018-07-14T01:40:51.358Z,0.00
2018-07-14T01:41:51.296Z,0.00
2018-07-14T01:42:51.235Z,0.00
2018-07-14T01:43:51.174Z,0.00
2018-07-14T01:44:51.112Z,0.00
2018-07-14T01:45:51.054Z,0.00
2018-07-14T01:46:50.993Z,0.00
2018-07-14T01:47:50.932Z,0.00
2018-07-14T01:48:50.872Z,0.00
2018-07-14T01:49:50.809Z,0.00
2018-07-14T01:50:50.751Z,0.00
2018-07-14T01:51:50.690Z,0.00
2018-07-14T01:52:50.634Z,0.00
2018-07-14T01:53:50.568Z,0.00
2018-07-14T01:54:50.507Z,0.00
2018-07-14T01:55:50.446Z,0.00
2018-07-14T01:56:50.389Z,0.00
2018-07-14T01:57:50.325Z,0.00
2018-07-14T01:58:50.263Z,0.00
2018-07-14T01:59:50.204Z,0.00
2018-07-14T02:00:50.152Z,0.00
2018-07-14T02:01:50.081Z,0.00
2018-07-14T02:02:50.025Z,0.00
2018-07-14T02:03:49.962Z,0.00
2018-07-14T02:04:49.902Z,0.00
2018-07-14T02:05:49.838Z,0.00
2018-07-14T02:06:49.777Z,0.00
2018-07-14T02:07:49.717Z,0.00
2018-07-14T02:08:49.657Z,0.00
2018-07-14T02:09:49.595Z,0.00
2018-07-14T02:10:49.535Z,0.00
2018-07-14T02:11:49.474Z,0.00
2018-07-14T02:12:49.419Z,0.00
2018-07-14T02:13:49.353Z,0.00
2018-07-14T02:14:49.293Z,0.00
2018-07-14T02:15:49.231Z,0.00
2018-07-14T02:16:49.172Z,0.00
2018-07-14T02:17:49.110Z,0.00
2018-07-14T02:18:49.048Z,0.00
2018-07-14T02:19:48.988Z,0.00
2018-07-14T02:20:48.928Z,0.00
2018-07-14T02:21:48.866Z,0.00
2018-07-14T02:22:48.805Z,0.00
2018-07-14T02:23:48.743Z,0.00
2018-07-14T02:24:48.686Z,0.00
2018-07-14T02:25:48.623Z,0.00
2018-07-14T02:26:48.562Z,0.00
2018-07-14T02:27:48.502Z,0.00
2018-07-14T02:28:48.441Z,0.00
2018-07-14T02:29:48.382Z,0.00
2018-07-14T02:30:48.320Z,0.00
2018-07-14T02:31:48.259Z,0.00
2018-07-14T02:32:48.199Z,0.00
2018-07-14T02:33:48.139Z,0.00
2018-07-14T02:34:48.075Z,0.00
2018-07-14T02:35:48.021Z,0.00
2018-07-14T02:36:47.955Z,0.00
2018-07-14T02:37:47.894Z,0.00
2018-07-14T02:38:47.833Z,0.00
2018-07-14T02:39:47.772Z,0.00
2018-07-14T02:40:47.710Z,0.00
2018-07-14T02:41:47.649Z,0.00
2018-07-14T02:42:47.594Z,0.00
2018-07-14T02:43:47.528Z,0.00
2018-07-14T02:44:47.467Z,0.00
2018-07-14T02:45:47.406Z,0.00
2018-07-14T02:46:47.346Z,0.00
2018-07-14T02:47:47.285Z,0.00
2018-07-14T02:48:47.223Z,0.00
2018-07-14T02:49:47.162Z,0.00
2018-07-14T02:50:47.108Z,0.00
2018-07-14T02:51:47.041Z,0.00
2018-07-14T02:52:46.980Z,0.00
2018-07-14T02:53:46.917Z,0.00
2018-07-14T02:54:46.859Z,0.00
2018-07-14T02:55:46.797Z,0.00
2018-07-14T02:56:46.738Z,0.00
2018-07-14T02:57:46.675Z,0.00
2018-07-14T02:58:46.614Z,0.00
2018-07-14T02:59:46.580Z,0.00
2018-07-14T03:00:46.492Z,0.00
2018-07-14T03:01:46.429Z,0.00
2018-07-14T03:02:46.370Z,0.00
2018-07-14T03:03:46.313Z,0.00
2018-07-14T03:04:46.271Z,0.00
2018-07-14T03:05:46.186Z,0.00
2018-07-14T03:06:46.126Z,0.00
2018-07-14T03:07:46.080Z,0.00
2018-07-14T03:08:46.006Z,0.00
2018-07-14T03:09:45.944Z,0.00
2018-07-14T03:10:45.883Z,0.00
2018-07-14T03:11:45.819Z,0.00
2018-07-14T03:12:45.805Z,0.00
2018-07-14T03:13:45.699Z,0.00
2018-07-14T03:14:45.638Z,0.00
2018-07-14T03:15:45.576Z,0.00
2018-07-14T03:16:45.516Z,0.00
2018-07-14T03:17:45.453Z,0.00
2018-07-14T03:18:45.397Z,0.00
2018-07-14T03:19:45.335Z,0.00
2018-07-14T03:20:45.272Z,0.00
2018-07-14T03:21:45.213Z,0.00
2018-07-14T03:22:45.150Z,0.00
2018-07-14T03:23:45.089Z,0.00
2018-07-14T03:24:45.028Z,0.00
2018-07-14T03:25:44.965Z,0.00
2018-07-14T03:26:44.907Z,0.00
2018-07-14T03:27:44.844Z,0.00
2018-07-14T03:28:44.786Z,0.00
2018-07-14T03:29:44.723Z,0.00
2018-07-14T03:30:44.663Z,0.00
2018-07-14T03:31:44.603Z,0.00
2018-07-14T03:32:44.534Z,0.00
2018-07-14T03:33:44.477Z,0.00
2018-07-14T03:34:44.418Z,0.00
2018-07-14T03:35:44.355Z,0.00
2018-07-14T03:36:44.304Z,0.00
2018-07-14T03:37:44.236Z,5.63
2018-07-14T03:38:44.173Z,5.63
2018-07-14T03:39:44.112Z,5.63
2018-07-14T03:40:44.051Z,5.63
2018-07-14T03:41:43.986Z,5.63
2018-07-14T03:42:43.938Z,5.63
2018-07-14T03:43:43.869Z,5.63
2018-07-14T03:44:43.804Z,5.63
2018-07-14T03:45:43.744Z,5.63
2018-07-14T03:46:43.682Z,5.63
2018-07-14T03:47:43.618Z,5.63
2018-07-14T03:48:43.563Z,5.63
2018-07-14T03:49:43.500Z,5.63
2018-07-14T03:50:43.438Z,5.63
2018-07-14T03:51:43.378Z,5.63
2018-07-14T03:52:43.317Z,5.63
2018-07-14T03:53:43.260Z,5.63
2018-07-14T03:54:43.197Z,11.25
2018-07-14T03:55:43.134Z,11.25
2018-07-14T03:56:43.074Z,11.25
2018-07-14T03:57:43.013Z,11.25
2018-07-14T03:58:42.947Z,11.25
2018-07-14T03:59:42.888Z,11.25
2018-07-14T04:00:42.844Z,11.25
2018-07-14T04:01:42.765Z,11.25
2018-07-14T04:02:42.708Z,11.25
2018-07-14T04:03:42.642Z,11.25
2018-07-14T04:04:42.581Z,11.25
2018-07-14T04:05:42.520Z,11.25
2018-07-14T04:06:42.461Z,11.25
2018-07-14T04:07:42.398Z,16.88
2018-07-14T04:08:42.336Z,16.88
2018-07-14T04:09:42.275Z,16.88
2018-07-14T04:10:42.215Z,16.88
2018-07-14T04:11:42.152Z,16.88
2018-07-14T04:12:42.093Z,16.88
2018-07-14T04:13:42.032Z,16.88
2018-07-14T04:14:42.021Z,22.50
2018-07-14T04:15:41.918Z,22.50
2018-07-14T04:16:41.849Z,22.50
2018-07-14T04:17:41.785Z,22.50
2018-07-14T04:18:41.735Z,22.50
2018-07-14T04:19:41.665Z,22.50
2018-07-14T04:20:41.605Z,22.50
2018-07-14T04:21:41.543Z,22.50
2018-07-14T04:22:41.481Z,28.13
2018-07-14T04:23:41.420Z,28.13
2018-07-14T04:24:41.358Z,28.13
2018-07-14T04:25:41.297Z,28.13
2018-07-14T04:26:41.236Z,28.13
2018-07-14T04:27:41.174Z,28.13
2018-07-14T04:28:41.114Z,33.75
2018-07-14T04:29:41.051Z,33.75
2018-07-14T04:30:40.994Z,33.75
2018-07-14T04:31:40.934Z,33.75
2018-07-14T04:32:40.871Z,33.75
2018-07-14T04:33:40.808Z,33.75
2018-07-14T04:34:40.753Z,39.38
2018-07-14T04:35:40.687Z,39.38
2018-07-14T04:36:40.626Z,39.38
2018-07-14T04:37:40.562Z,39.38
2018-07-14T04:38:40.507Z,39.38
2018-07-14T04:39:40.440Z,39.38
2018-07-14T04:40:40.381Z,39.38
2018-07-14T04:41:40.320Z,45.00
2018-07-14T04:42:40.256Z,45.00
2018-07-14T04:43:40.198Z,45.00
2018-07-14T04:44:40.136Z,45.00
2018-07-14T04:45:40.075Z,45.00
2018-07-14T04:46:40.018Z,50.63
2018-07-14T04:47:39.953Z,50.63
2018-07-14T04:48:39.898Z,50.63
2018-07-14T04:49:39.832Z,50.63
2018-07-14T04:50:39.770Z,50.63
2018-07-14T04:51:39.710Z,50.63
2018-07-14T04:52:39.649Z,50.63
2018-07-14T04:53:39.586Z,50.63
2018-07-14T04:54:39.528Z,56.25
2018-07-14T04:55:39.465Z,56.25
2018-07-14T04:56:39.405Z,56.25
2018-07-14T04:57:39.344Z,56.25
2018-07-14T04:58:39.284Z,56.25
2018-07-14T04:59:39.222Z,56.25
2018-07-14T05:00:39.161Z,56.25
2018-07-14T05:01:39.104Z,56.25
2018-07-14T05:02:39.040Z,56.25
2018-07-14T05:03:38.980Z,56.25
2018-07-14T05:04:38.918Z,61.88
2018-07-14T05:05:38.857Z,61.88
2018-07-14T05:06:38.797Z,61.88
2018-07-14T05:07:38.737Z,67.50
2018-07-14T05:08:38.676Z,67.50
2018-07-14T05:09:38.614Z,67.50
2018-07-14T05:10:38.554Z,73.13
2018-07-14T05:11:38.493Z,73.13
2018-07-14T05:12:38.433Z,84.38
2018-07-14T05:13:38.375Z,101.25
2018-07-14T05:14:38.312Z,112.50
2018-07-14T05:15:38.251Z,112.50
2018-07-14T05:16:38.190Z,112.50
2018-07-14T05:17:38.130Z,101.25
2018-07-14T05:18:38.068Z,101.25
2018-07-14T05:19:38.012Z,101.25
2018-07-14T05:20:37.949Z,101.25
2018-07-14T05:21:37.888Z,101.25
2018-07-14T05:22:37.827Z,101.25
2018-07-14T05:23:37.774Z,95.63
2018-07-14T05:24:37.709Z,95.63
2018-07-14T05:25:37.646Z,95.63
2018-07-14T05:26:37.589Z,95.63
2018-07-14T05:27:37.525Z,95.63
2018-07-14T05:28:37.522Z,95.63
2018-07-14T05:29:37.409Z,101.25
2018-07-14T05:30:37.346Z,101.25
2018-07-14T05:31:37.288Z,101.25
2018-07-14T05:32:37.225Z,101.25
2018-07-14T05:33:37.163Z,101.25
2018-07-14T05:34:37.106Z,101.25
2018-07-14T05:35:37.047Z,101.25
2018-07-14T05:36:36.986Z,101.25
2018-07-14T05:37:36.926Z,95.63
2018-07-14T05:38:36.870Z,95.63
2018-07-14T05:39:36.805Z,95.63
2018-07-14T05:40:36.752Z,95.63
2018-07-14T05:41:36.685Z,106.88
2018-07-14T05:42:36.623Z,106.88
2018-07-14T05:43:36.565Z,112.50
2018-07-14T05:44:36.513Z,118.13
2018-07-14T05:45:36.446Z,118.13
2018-07-14T05:46:36.384Z,112.50
2018-07-14T05:47:36.339Z,112.50
2018-07-14T05:48:36.266Z,106.88
2018-07-14T05:49:36.206Z,101.25
2018-07-14T05:50:36.146Z,106.88
2018-07-14T05:51:36.088Z,118.13
2018-07-14T05:52:36.028Z,106.88
2018-07-14T05:53:35.968Z,118.13
2018-07-14T05:54:35.909Z,118.13
2018-07-14T05:55:35.852Z,123.75
2018-07-14T05:56:35.789Z,106.88
2018-07-14T05:57:35.729Z,129.38
2018-07-14T05:58:35.671Z,112.50
2018-07-14T05:59:35.611Z,112.50
2018-07-14T06:00:35.551Z,112.50
2018-07-14T06:01:35.494Z,118.13
2018-07-14T06:02:35.430Z,118.13
2018-07-14T06:03:35.373Z,118.13
2018-07-14T06:04:35.314Z,118.13
2018-07-14T06:05:35.252Z,112.50
2018-07-14T06:06:35.193Z,118.13
2018-07-14T06:07:35.194Z,118.13
2018-07-14T06:08:35.075Z,118.13
2018-07-14T06:09:35.020Z,118.13
2018-07-14T06:10:34.958Z,118.13
2018-07-14T06:11:34.899Z,123.75
2018-07-14T06:12:34.838Z,123.75
2018-07-14T06:13:34.779Z,123.75
2018-07-14T06:14:34.721Z,129.38
2018-07-14T06:15:34.660Z,123.75
2018-07-14T06:16:34.601Z,123.75
2018-07-14T06:17:34.543Z,118.13
2018-07-14T06:18:34.480Z,118.13
2018-07-14T06:19:34.426Z,118.13
2018-07-14T06:20:34.364Z,118.13
2018-07-14T06:21:34.307Z,118.13
2018-07-14T06:22:34.246Z,118.13
2018-07-14T06:23:34.189Z,123.75
2018-07-14T06:24:34.125Z,123.75
2018-07-14T06:25:34.067Z,118.13
2018-07-14T06:26:34.014Z,118.13
2018-07-14T06:27:33.951Z,118.13
2018-07-14T06:28:33.893Z,123.75
2018-07-14T06:29:33.831Z,123.75
2018-07-14T06:30:33.773Z,123.75
2018-07-14T06:31:33.715Z,118.13
2018-07-14T06:32:33.654Z,118.13
2018-07-14T06:33:33.594Z,118.13
2018-07-14T06:34:33.537Z,129.38
2018-07-14T06:35:33.481Z,146.25
2018-07-14T06:36:33.418Z,151.88
2018-07-14T06:37:33.359Z,151.88
2018-07-14T06:38:33.361Z,140.63
2018-07-14T06:39:33.243Z,140.63
2018-07-14T06:40:33.186Z,135.00
2018-07-14T06:41:33.129Z,129.38
2018-07-14T06:42:33.071Z,123.75
2018-07-14T06:43:33.005Z,123.75
2018-07-14T06:44:32.947Z,135.00
2018-07-14T06:45:32.890Z,135.00
2018-07-14T06:46:32.831Z,135.00
2018-07-14T06:47:32.775Z,140.63
2018-07-14T06:48:32.715Z,140.63
2018-07-14T06:49:32.652Z,146.25
2018-07-14T06:50:32.594Z,157.50
2018-07-14T06:51:32.536Z,163.13
2018-07-14T06:52:32.479Z,180.00
2018-07-14T06:53:32.420Z,185.63
2018-07-14T06:54:32.362Z,185.63
2018-07-14T06:55:32.301Z,168.75
2018-07-14T06:56:32.246Z,157.50
2018-07-14T06:57:32.183Z,151.88
2018-07-14T06:58:32.127Z,163.13
2018-07-14T06:59:32.070Z,174.38
2018-07-14T07:00:32.010Z,168.75
2018-07-14T07:01:31.950Z,163.13
2018-07-14T07:02:31.897Z,163.13
2018-07-14T07:03:31.834Z,168.75
2018-07-14T07:04:31.776Z,163.13
2018-07-14T07:05:31.718Z,151.88
2018-07-14T07:06:31.664Z,146.25
2018-07-14T07:07:31.605Z,146.25
2018-07-14T07:08:31.545Z,140.63
2018-07-14T07:09:31.487Z,135.00
2018-07-14T07:10:31.428Z,135.00
2018-07-14T07:11:31.369Z,129.38
2018-07-14T07:12:31.312Z,123.75
2018-07-14T07:13:31.255Z,118.13
2018-07-14T07:14:31.196Z,118.13
2018-07-14T07:15:31.135Z,112.50
2018-07-14T07:16:31.080Z,112.50
2018-07-14T07:17:31.020Z,101.25
2018-07-14T07:18:30.967Z,101.25
2018-07-14T07:19:30.906Z,101.25
2018-07-14T07:20:30.849Z,101.25
2018-07-14T07:21:30.895Z,101.25
2018-07-14T07:22:30.732Z,101.25
2018-07-14T07:23:30.672Z,101.25
2018-07-14T07:24:30.618Z,106.88
2018-07-14T07:25:30.558Z,106.88
2018-07-14T07:26:30.495Z,118.13
2018-07-14T07:27:30.444Z,129.38
2018-07-14T07:28:30.382Z,151.88
2018-07-14T07:29:30.324Z,168.75
2018-07-14T07:30:30.266Z,241.88
2018-07-14T07:31:30.208Z,225.00
2018-07-14T07:32:30.151Z,219.38
2018-07-14T07:33:30.092Z,185.63
2018-07-14T07:34:30.060Z,219.38
2018-07-14T07:35:29.979Z,213.75
2018-07-14T07:36:29.918Z,219.38
2018-07-14T07:37:29.860Z,230.63
2018-07-14T07:38:29.801Z,253.13
2018-07-14T07:39:29.745Z,230.63
2018-07-14T07:40:29.692Z,208.13
2018-07-14T07:41:29.627Z,146.25
2018-07-14T07:42:29.575Z,135.00
2018-07-14T07:43:29.514Z,123.75
2018-07-14T07:44:29.457Z,118.13
2018-07-14T07:45:29.401Z,118.13
2018-07-14T07:46:29.340Z,118.13
2018-07-14T07:47:29.282Z,118.13
2018-07-14T07:48:29.227Z,129.38
2018-07-14T07:49:29.169Z,135.00
2018-07-14T07:50:29.109Z,135.00
2018-07-14T07:51:29.052Z,129.38
2018-07-14T07:52:28.996Z,118.13
2018-07-14T07:53:28.931Z,118.13
2018-07-14T07:54:28.879Z,118.13
2018-07-14T07:55:28.822Z,118.13
2018-07-14T07:56:28.766Z,118.13
2018-07-14T07:57:28.705Z,123.75
2018-07-14T07:58:28.659Z,135.00
2018-07-14T07:59:28.590Z,140.63
2018-07-14T08:00:28.535Z,146.25
2018-07-14T08:01:28.475Z,140.63
2018-07-14T08:02:28.416Z,140.63
2018-07-14T08:03:28.362Z,146.25
2018-07-14T08:04:28.307Z,151.88
2018-07-14T08:05:28.246Z,157.50
2018-07-14T08:06:28.191Z,151.88
2018-07-14T08:07:28.134Z,151.88
2018-07-14T08:08:28.077Z,146.25
2018-07-14T08:09:28.017Z,146.25
2018-07-14T08:10:27.958Z,146.25
2018-07-14T08:11:27.910Z,146.25
2018-07-14T08:12:27.845Z,151.88
2018-07-14T08:13:27.787Z,225.00
2018-07-14T08:14:27.732Z,247.50
2018-07-14T08:15:27.675Z,191.25
2018-07-14T08:16:27.617Z,213.75
2018-07-14T08:17:27.557Z,213.75
2018-07-14T08:18:27.502Z,202.50
2018-07-14T08:19:27.447Z,196.88
2018-07-14T08:20:27.388Z,208.13
2018-07-14T08:21:27.329Z,202.50
2018-07-14T08:22:27.276Z,247.50
2018-07-14T08:23:27.215Z,202.50
2018-07-14T08:24:27.160Z,213.75
2018-07-14T08:25:27.101Z,185.63
2018-07-14T08:26:27.049Z,180.00
2018-07-14T08:27:27.001Z,180.00
2018-07-14T08:28:26.928Z,185.63
2018-07-14T08:29:26.879Z,185.63
2018-07-14T08:30:26.828Z,196.88
2018-07-14T08:31:26.761Z,185.63
2018-07-14T08:32:26.728Z,157.50
2018-07-14T08:33:26.647Z,151.88
2018-07-14T08:34:26.590Z,157.50
2018-07-14T08:35:26.534Z,219.38
2018-07-14T08:36:26.476Z,163.13
2018-07-14T08:37:26.422Z,208.13
2018-07-14T08:38:26.362Z,157.50
2018-07-14T08:39:26.307Z,208.13
2018-07-14T08:40:26.251Z,208.13
2018-07-14T08:41:26.192Z,230.63
2018-07-14T08:42:26.140Z,258.75
2018-07-14T08:43:26.079Z,241.88
2018-07-14T08:44:26.024Z,247.50
2018-07-14T08:45:25.968Z,275.63
2018-07-14T08:46:25.909Z,264.38
2018-07-14T08:47:25.854Z,241.88
2018-07-14T08:48:25.798Z,258.75
2018-07-14T08:49:25.740Z,298.13
2018-07-14T08:50:25.746Z,230.63
2018-07-14T08:51:25.654Z,236.25
2018-07-14T08:52:25.574Z,309.38
2018-07-14T08:53:25.516Z,241.88
2018-07-14T08:54:25.460Z,264.38
2018-07-14T08:55:25.402Z,230.63
2018-07-14T08:56:25.347Z,241.88
2018-07-14T08:57:25.293Z,208.13
2018-07-14T08:58:25.235Z,196.88
2018-07-14T08:59:25.176Z,202.50
2018-07-14T09:00:25.123Z,191.25
2018-07-14T09:01:25.067Z,196.88
2018-07-14T09:02:25.010Z,191.25
2018-07-14T09:03:24.956Z,196.88
2018-07-14T09:04:24.899Z,191.25
2018-07-14T09:05:24.851Z,185.63
2018-07-14T09:06:24.787Z,180.00
2018-07-14T09:07:24.734Z,185.63
2018-07-14T09:08:24.674Z,191.25
2018-07-14T09:09:24.618Z,213.75
2018-07-14T09:10:24.561Z,202.50
2018-07-14T09:11:24.511Z,202.50
2018-07-14T09:12:24.452Z,236.25
2018-07-14T09:13:24.395Z,185.63
2018-07-14T09:14:24.341Z,163.13
2018-07-14T09:15:24.285Z,157.50
2018-07-14T09:16:24.270Z,140.63
2018-07-14T09:17:24.172Z,135.00
2018-07-14T09:18:24.124Z,123.75
2018-07-14T09:19:24.059Z,118.13
2018-07-14T09:20:24.005Z,106.88
2018-07-14T09:21:23.948Z,106.88
2018-07-14T09:22:23.893Z,101.25
2018-07-14T09:23:23.833Z,106.88
2018-07-14T09:24:23.782Z,213.75
2018-07-14T09:25:23.727Z,140.63
2018-07-14T09:26:23.670Z,174.38
2018-07-14T09:27:23.615Z,281.25
2018-07-14T09:28:23.554Z,343.13
2018-07-14T09:29:23.511Z,320.63
2018-07-14T09:30:23.448Z,461.25
2018-07-14T09:31:23.393Z,438.75
2018-07-14T09:32:23.336Z,461.25
2018-07-14T09:33:23.281Z,466.88
2018-07-14T09:34:23.226Z,444.38
2018-07-14T09:35:23.171Z,466.88
2018-07-14T09:36:23.117Z,466.88
2018-07-14T09:37:23.061Z,466.88
2018-07-14T09:38:23.007Z,472.50
2018-07-14T09:39:22.954Z,393.75
2018-07-14T09:40:22.900Z,421.88
2018-07-14T09:41:22.847Z,270.00
2018-07-14T09:42:22.794Z,433.13
2018-07-14T09:43:22.739Z,281.25
2018-07-14T09:44:22.687Z,450.00
2018-07-14T09:45:22.633Z,410.63
2018-07-14T09:46:22.581Z,163.13
2018-07-14T09:47:22.527Z,455.63
2018-07-14T09:48:22.477Z,405.00
2018-07-14T09:49:22.424Z,191.25
2018-07-14T09:50:22.371Z,275.63
2018-07-14T09:51:22.319Z,478.13
2018-07-14T09:52:22.268Z,478.13
2018-07-14T09:53:22.215Z,466.88
2018-07-14T09:54:22.160Z,461.25
2018-07-14T09:55:22.148Z,489.38
2018-07-14T09:56:22.058Z,354.38
2018-07-14T09:57:22.005Z,264.38
2018-07-14T09:58:21.953Z,382.50
2018-07-14T09:59:21.900Z,371.25
2018-07-14T10:00:21.856Z,247.50
2018-07-14T10:01:21.798Z,213.75
2018-07-14T10:02:21.753Z,196.88
2018-07-14T10:03:21.716Z,202.50
2018-07-14T10:04:21.644Z,286.88
2018-07-14T10:05:21.598Z,371.25
2018-07-14T10:06:21.539Z,315.00
2018-07-14T10:07:21.491Z,371.25
2018-07-14T10:08:21.438Z,247.50
2018-07-14T10:09:21.384Z,337.50
2018-07-14T10:10:21.333Z,450.00
2018-07-14T10:11:21.283Z,405.00
2018-07-14T10:12:21.232Z,303.75
2018-07-14T10:13:21.194Z,405.00
2018-07-14T10:14:21.152Z,292.50
2018-07-14T10:15:21.091Z,225.00
2018-07-14T10:16:21.073Z,348.75
2018-07-14T10:17:21.077Z,219.38
2018-07-14T10:18:20.923Z,253.13
2018-07-14T10:19:20.871Z,219.38
2018-07-14T10:20:20.821Z,253.13
2018-07-14T10:21:20.771Z,230.63
2018-07-14T10:22:20.769Z,292.50
2018-07-14T10:23:20.668Z,376.88
2018-07-14T10:24:20.618Z,365.63
2018-07-14T10:25:20.789Z,202.50
2018-07-14T10:26:20.511Z,230.63
2018-07-14T10:27:20.462Z,270.00
2018-07-14T10:28:20.412Z,236.25
2018-07-14T10:29:20.368Z,140.63
2018-07-14T10:30:20.309Z,140.63
2018-07-14T10:31:20.260Z,135.00
2018-07-14T10:32:20.208Z,135.00
2018-07-14T10:33:20.157Z,135.00
2018-07-14T10:34:20.104Z,146.25
2018-07-14T10:35:20.054Z,151.88
2018-07-14T10:36:20.002Z,151.88
2018-07-14T10:37:19.949Z,163.13
2018-07-14T10:38:19.901Z,180.00
2018-07-14T10:39:19.845Z,180.00
2018-07-14T10:40:19.795Z,163.13
2018-07-14T10:41:19.744Z,275.63
2018-07-14T10:42:19.696Z,292.50
2018-07-14T10:43:19.646Z,326.25
2018-07-14T10:44:19.585Z,337.50
2018-07-14T10:45:19.530Z,281.25
2018-07-14T10:46:19.477Z,275.63
2018-07-14T10:47:19.426Z,258.75
2018-07-14T10:48:19.381Z,315.00
2018-07-14T10:49:19.320Z,303.75
2018-07-14T10:50:19.269Z,309.38
2018-07-14T10:51:19.216Z,303.75
2018-07-14T10:52:19.166Z,303.75
2018-07-14T10:53:19.113Z,303.75
2018-07-14T10:54:19.061Z,303.75
2018-07-14T10:55:19.011Z,303.75
2018-07-14T10:56:18.960Z,286.88
2018-07-14T10:57:18.906Z,303.75
2018-07-14T10:58:18.860Z,303.75
2018-07-14T10:59:18.816Z,303.75
2018-07-14T11:00:18.753Z,303.75
2018-07-14T11:01:18.703Z,303.75
2018-07-14T11:02:18.651Z,315.00
2018-07-14T11:03:18.602Z,196.88
2018-07-14T11:04:18.555Z,320.63
2018-07-14T11:05:18.498Z,320.63
2018-07-14T11:06:18.446Z,140.63
2018-07-14T11:07:18.398Z,303.75
2018-07-14T11:08:18.346Z,303.75
2018-07-14T11:09:18.296Z,303.75
2018-07-14T11:10:18.246Z,303.75
2018-07-14T11:11:18.193Z,298.13
2018-07-14T11:12:18.146Z,286.88
2018-07-14T11:13:18.094Z,281.25
2018-07-14T11:14:18.042Z,270.00
2018-07-14T11:15:17.994Z,258.75
2018-07-14T11:16:17.940Z,253.13
2018-07-14T11:17:17.889Z,253.13
2018-07-14T11:18:17.841Z,241.88
2018-07-14T11:19:17.791Z,208.13
2018-07-14T11:20:17.737Z,219.38
2018-07-14T11:21:17.685Z,202.50
2018-07-14T11:22:17.633Z,191.25
2018-07-14T11:23:17.582Z,191.25
2018-07-14T11:24:17.530Z,191.25
2018-07-14T11:25:17.478Z,196.88
2018-07-14T11:26:17.428Z,202.50
2018-07-14T11:27:17.373Z,191.25
2018-07-14T11:28:17.322Z,196.88
2018-07-14T11:29:17.268Z,196.88
2018-07-14T11:30:17.227Z,196.88
2018-07-14T11:31:17.166Z,191.25
2018-07-14T11:32:17.116Z,191.25
2018-07-14T11:33:17.058Z,191.25
2018-07-14T11:34:17.003Z,185.63
2018-07-14T11:35:16.951Z,185.63
2018-07-14T11:36:16.898Z,180.00
2018-07-14T11:37:16.844Z,180.00
2018-07-14T11:38:16.794Z,180.00
2018-07-14T11:39:16.737Z,180.00
2018-07-14T11:40:16.684Z,174.38
2018-07-14T11:41:16.629Z,180.00
2018-07-14T11:42:16.641Z,174.38
2018-07-14T11:43:16.531Z,174.38
2018-07-14T11:44:16.469Z,174.38
2018-07-14T11:45:16.413Z,174.38
2018-07-14T11:46:16.359Z,174.38
2018-07-14T11:47:16.310Z,174.38
2018-07-14T11:48:16.257Z,168.75
2018-07-14T11:49:16.198Z,146.25
2018-07-14T11:50:16.144Z,168.75
2018-07-14T11:51:16.090Z,168.75
2018-07-14T11:52:16.036Z,129.38
2018-07-14T11:53:15.980Z,123.75
2018-07-14T11:54:15.979Z,112.50
2018-07-14T11:55:15.874Z,123.75
2018-07-14T11:56:15.821Z,112.50
2018-07-14T11:57:15.764Z,123.75
2018-07-14T11:58:15.714Z,163.13
2018-07-14T11:59:15.653Z,174.38
2018-07-14T12:00:15.600Z,185.63
2018-07-14T12:01:15.550Z,135.00
2018-07-14T12:02:15.494Z,135.00
2018-07-14T12:03:15.438Z,129.38
2018-07-14T12:04:15.380Z,129.38
2018-07-14T12:05:15.325Z,129.38
2018-07-14T12:06:15.275Z,123.75
2018-07-14T12:07:15.273Z,129.38
2018-07-14T12:08:15.163Z,129.38
2018-07-14T12:09:15.107Z,123.75
2018-07-14T12:10:15.051Z,129.38
2018-07-14T12:11:14.998Z,135.00
2018-07-14T12:12:14.945Z,135.00
2018-07-14T12:13:14.890Z,140.63
2018-07-14T12:14:14.834Z,140.63
2018-07-14T12:15:14.777Z,135.00
2018-07-14T12:16:14.726Z,135.00
2018-07-14T12:17:14.674Z,135.00
2018-07-14T12:18:14.614Z,140.63
2018-07-14T12:19:14.561Z,140.63
2018-07-14T12:20:14.507Z,140.63
2018-07-14T12:21:14.447Z,140.63
2018-07-14T12:22:14.433Z,174.38
2018-07-14T12:23:14.341Z,196.88
2018-07-14T12:24:14.284Z,174.38
2018-07-14T12:25:14.229Z,174.38
2018-07-14T12:26:14.176Z,180.00
2018-07-14T12:27:14.121Z,174.38
2018-07-14T12:28:14.066Z,180.00
2018-07-14T12:29:14.061Z,185.63
2018-07-14T12:30:13.965Z,191.25
2018-07-14T12:31:13.899Z,191.25
2018-07-14T12:32:13.846Z,185.63
2018-07-14T12:33:13.790Z,168.75
2018-07-14T12:34:13.736Z,151.88
2018-07-14T12:35:13.680Z,146.25
2018-07-14T12:36:13.626Z,163.13
2018-07-14T12:37:13.569Z,230.63
2018-07-14T12:38:13.515Z,225.00
2018-07-14T12:39:13.460Z,213.75
2018-07-14T12:40:13.405Z,202.50
2018-07-14T12:41:13.349Z,202.50
2018-07-14T12:42:13.292Z,202.50
2018-07-14T12:43:13.242Z,213.75
2018-07-14T12:44:13.185Z,213.75
2018-07-14T12:45:13.130Z,202.50